createdAt,value
2019-05-11T00:03:20.098Z,9.10
2019-05-11T00:08:15.839Z,9.00
2019-05-11T00:13:11.498Z,8.90
2019-05-11T00:18:08.828Z,8.80
2019-05-11T00:23:04.518Z,8.70
2019-05-11T00:28:00.225Z,8.70
2019-05-11T00:32:57.116Z,8.70
2019-05-11T00:37:52.660Z,8.70
2019-05-11T00:42:48.310Z,8.70
2019-05-11T00:47:43.978Z,8.70
2019-05-11T00:52:39.634Z,8.70
2019-05-11T00:57:35.239Z,8.60
2019-05-11T01:02:30.853Z,8.60
2019-05-11T01:07:26.512Z,8.60
2019-05-11T01:12:20.840Z,8.60
2019-05-11T01:17:16.393Z,8.60
2019-05-11T01:22:12.326Z,8.60
2019-05-11T01:27:09.212Z,8.60
2019-05-11T01:32:04.767Z,8.60
2019-05-11T01:37:00.373Z,8.50
2019-05-11T01:41:56.026Z,8.50
2019-05-11T01:46:51.623Z,8.50
2019-05-11T01:51:47.276Z,8.60
2019-05-11T01:56:43.917Z,8.60
2019-05-11T02:01:40.541Z,8.50
2019-05-11T02:06:36.213Z,8.50
2019-05-11T02:11:31.695Z,8.50
2019-05-11T02:16:27.331Z,8.50
2019-05-11T02:21:22.892Z,8.60
2019-05-11T02:26:18.505Z,8.50
2019-05-11T02:31:14.128Z,8.50
2019-05-11T02:36:09.775Z,8.60
2019-05-11T02:41:05.441Z,8.60
2019-05-11T02:46:01.087Z,8.50
2019-05-11T02:50:58.534Z,8.40
2019-05-11T02:55:54.896Z,8.40
2019-05-11T03:00:50.478Z,8.30
2019-05-11T03:05:46.054Z,8.20
2019-05-11T03:10:41.688Z,8.20
2019-05-11T03:15:37.379Z,8.00
2019-05-11T03:20:33.071Z,8.00
2019-05-11T03:25:28.714Z,7.80
2019-05-11T03:30:24.486Z,7.80
2019-05-11T03:35:20.130Z,7.80
2019-05-11T03:40:15.751Z,7.80
2019-05-11T03:45:11.409Z,7.80
2019-05-11T03:50:07.503Z,7.70
2019-05-11T03:55:03.255Z,7.70
2019-05-11T03:59:58.869Z,7.70
2019-05-11T04:04:54.617Z,7.80
2019-05-11T04:09:50.240Z,7.70
2019-05-11T04:14:45.898Z,7.70
2019-05-11T04:19:41.812Z,7.70
2019-05-11T04:24:37.478Z,7.80
2019-05-11T04:29:34.169Z,7.80
2019-05-11T04:34:29.814Z,8.00
2019-05-11T04:39:25.408Z,8.10
2019-05-11T04:44:21.086Z,8.20
2019-05-11T04:49:16.683Z,8.40
2019-05-11T04:54:12.362Z,8.50
2019-05-11T04:59:08.021Z,8.60
2019-05-11T05:04:13.580Z,8.70
2019-05-11T05:09:03.815Z,8.80
2019-05-11T05:14:01.891Z,8.90
2019-05-11T05:18:55.556Z,9.10
2019-05-11T05:23:51.317Z,9.30
2019-05-11T05:28:46.956Z,9.60
2019-05-11T05:33:42.527Z,9.80
2019-05-11T05:38:38.260Z,10.00
2019-05-11T05:43:33.989Z,10.00
2019-05-11T05:48:29.688Z,10.20
2019-05-11T05:53:25.494Z,10.30
2019-05-11T05:58:21.285Z,10.50
2019-05-11T06:03:17.108Z,10.60
2019-05-11T06:08:12.823Z,10.80
2019-05-11T06:13:08.522Z,11.00
2019-05-11T06:18:04.191Z,11.40
2019-05-11T06:22:59.884Z,11.60
2019-05-11T06:27:55.472Z,11.90
2019-05-11T06:32:51.137Z,12.10
2019-05-11T06:37:46.809Z,12.30
2019-05-11T06:42:42.472Z,12.40
2019-05-11T06:47:38.053Z,12.60
2019-05-11T06:52:33.971Z,12.90
2019-05-11T06:57:29.591Z,13.10
2019-05-11T07:02:26.318Z,13.40
2019-05-11T07:07:22.024Z,13.70
2019-05-11T07:12:17.853Z,14.00
2019-05-11T07:17:13.717Z,14.30
2019-05-11T07:22:09.345Z,14.60
2019-05-11T07:27:05.029Z,14.90
2019-05-11T07:32:06.221Z,15.00
2019-05-11T07:36:58.037Z,15.20
2019-05-11T07:41:53.633Z,15.40
2019-05-11T07:46:49.342Z,15.70
2019-05-11T07:51:45.053Z,15.90
2019-05-11T07:56:40.705Z,16.20
2019-05-11T08:01:38.635Z,16.40
2019-05-11T08:06:34.054Z,16.60
2019-05-11T08:11:31.460Z,16.70
2019-05-11T08:16:28.457Z,16.70
2019-05-11T08:21:24.333Z,16.80
2019-05-11T08:26:20.014Z,16.90
2019-05-11T08:31:15.725Z,17.00
2019-05-11T08:36:11.397Z,17.00
2019-05-11T08:41:08.146Z,17.20
2019-05-11T08:46:04.290Z,17.50
2019-05-11T08:50:59.992Z,17.70
2019-05-11T08:55:58.646Z,18.00
2019-05-11T09:00:53.804Z,18.10
2019-05-11T09:05:49.572Z,18.30
2019-05-11T09:10:45.313Z,18.40
2019-05-11T09:15:41.021Z,18.60
2019-05-11T09:20:37.809Z,19.00
2019-05-11T09:25:33.584Z,19.20
2019-05-11T09:30:29.599Z,19.60
2019-05-11T09:35:25.300Z,19.80
2019-05-11T09:40:20.958Z,20.10
2019-05-11T09:45:18.762Z,20.30
2019-05-11T09:50:14.558Z,20.50
2019-05-11T09:55:11.869Z,20.60
2019-05-11T10:00:08.716Z,20.80
2019-05-11T10:05:04.980Z,21.20
2019-05-11T10:10:02.357Z,21.20
2019-05-11T10:14:59.067Z,21.40
2019-05-11T10:19:54.866Z,21.70
2019-05-11T10:24:50.545Z,21.70
2019-05-11T10:29:48.463Z,21.80
2019-05-11T10:34:43.486Z,22.00
2019-05-11T10:39:39.200Z,22.30
2019-05-11T10:44:38.376Z,22.40
2019-05-11T10:49:33.180Z,22.50
2019-05-11T10:54:29.024Z,22.40
2019-05-11T10:59:24.665Z,22.30
2019-05-11T11:04:20.381Z,22.30
2019-05-11T11:09:17.725Z,22.60
2019-05-11T11:14:13.640Z,22.90
2019-05-11T11:19:09.301Z,22.90
2019-05-11T11:24:05.015Z,22.80
2019-05-11T11:29:00.720Z,22.70
2019-05-11T11:33:58.504Z,22.90
2019-05-11T11:38:53.736Z,23.60
2019-05-11T11:43:49.432Z,23.90
2019-05-11T11:48:48.527Z,24.10
2019-05-11T11:53:43.259Z,24.10
2019-05-11T11:58:38.896Z,24.80
2019-05-11T12:03:34.550Z,25.10
2019-05-11T12:08:30.227Z,25.10
2019-05-11T12:13:27.401Z,24.70
2019-05-11T12:18:24.291Z,24.30
2019-05-11T12:23:19.889Z,23.90
2019-05-11T12:28:15.460Z,23.80
2019-05-11T12:33:11.141Z,23.50
2019-05-11T12:38:07.850Z,23.40
2019-05-11T12:43:03.521Z,23.20
2019-05-11T12:47:59.193Z,23.00
2019-05-11T12:52:56.645Z,23.10
2019-05-11T12:57:50.331Z,23.30
2019-05-11T13:02:48.195Z,23.70
2019-05-11T13:07:43.197Z,23.80
2019-05-11T13:12:39.007Z,23.40
2019-05-11T13:17:37.835Z,23.20
2019-05-11T13:22:31.911Z,23.20
2019-05-11T13:27:28.333Z,23.90
2019-05-11T13:32:28.166Z,23.80
2019-05-11T13:37:23.942Z,24.20
2019-05-11T13:42:22.803Z,24.60
2019-05-11T13:47:18.070Z,24.30
2019-05-11T13:52:13.906Z,23.80
2019-05-11T13:57:09.521Z,23.50
2019-05-11T14:02:08.122Z,23.40
2019-05-11T14:07:02.360Z,23.10
2019-05-11T14:11:58.331Z,22.90
2019-05-11T14:16:54.277Z,22.70
2019-05-11T14:21:49.930Z,22.60
2019-05-11T14:26:45.649Z,22.60
2019-05-11T14:31:41.321Z,22.70
2019-05-11T14:36:38.752Z,23.10
2019-05-11T14:41:34.291Z,24.40
2019-05-11T14:46:29.935Z,25.20
2019-05-11T14:51:25.570Z,25.40
2019-05-11T14:56:21.196Z,26.10
2019-05-11T15:01:18.362Z,27.20
2019-05-11T15:06:14.061Z,27.60
2019-05-11T15:11:09.622Z,27.30
2019-05-11T15:16:05.321Z,27.20
2019-05-11T15:21:00.916Z,26.70
2019-05-11T15:25:58.620Z,26.00
2019-05-11T15:30:54.364Z,25.70
2019-05-11T15:35:49.920Z,25.50
2019-05-11T15:40:45.549Z,25.30
2019-05-11T15:45:41.144Z,25.00
2019-05-11T15:50:39.683Z,24.80
2019-05-11T15:55:34.114Z,25.00
2019-05-11T16:00:29.711Z,24.70
2019-05-11T16:05:25.624Z,24.50
2019-05-11T16:10:21.625Z,24.50
2019-05-11T16:15:19.120Z,24.20
2019-05-11T16:20:14.812Z,24.60
2019-05-11T16:25:12.295Z,25.00
2019-05-11T16:30:09.011Z,24.50
2019-05-11T16:35:08.775Z,23.90
2019-05-11T16:40:04.133Z,23.20
2019-05-11T16:44:59.788Z,22.70
2019-05-11T16:49:57.843Z,22.20
2019-05-11T16:54:52.780Z,21.80
2019-05-11T16:59:48.466Z,21.70
2019-05-11T17:04:44.104Z,21.40
2019-05-11T17:09:39.773Z,21.30
2019-05-11T17:14:38.012Z,21.10
2019-05-11T17:19:45.433Z,21.00
2019-05-11T17:24:31.180Z,20.90
2019-05-11T17:29:27.587Z,20.90
2019-05-11T17:34:23.364Z,20.80
2019-05-11T17:39:21.184Z,20.70
2019-05-11T17:44:18.492Z,20.60
2019-05-11T17:49:14.378Z,20.40
2019-05-11T17:54:11.363Z,20.20
2019-05-11T17:59:08.058Z,20.20
2019-05-11T18:04:03.927Z,20.00
2019-05-11T18:08:59.560Z,20.00
2019-05-11T18:13:55.232Z,19.90
2019-05-11T18:18:50.921Z,19.80
2019-05-11T18:23:48.037Z,19.70
2019-05-11T18:28:43.805Z,19.60
2019-05-11T18:33:39.508Z,19.50
2019-05-11T18:38:38.093Z,19.40
2019-05-11T18:43:33.961Z,19.00
2019-05-11T18:48:29.689Z,18.00
2019-05-11T18:53:25.357Z,17.10
2019-05-11T18:58:21.042Z,16.60
2019-05-11T19:03:19.033Z,16.20
2019-05-11T19:08:14.096Z,15.90
2019-05-11T19:13:09.977Z,15.50
2019-05-11T19:18:06.678Z,15.30
2019-05-11T19:23:02.273Z,15.20
2019-05-11T19:27:58.916Z,15.10
2019-05-11T19:32:54.933Z,14.80
2019-05-11T19:37:53.365Z,14.60
2019-05-11T19:42:55.696Z,14.50
2019-05-11T19:47:51.343Z,14.50
2019-05-11T19:52:47.965Z,14.40
2019-05-11T19:57:43.553Z,14.10
2019-05-11T20:02:39.194Z,13.80
2019-05-11T20:07:34.953Z,13.70
2019-05-11T20:12:32.651Z,13.70
2019-05-11T20:17:28.829Z,13.60
2019-05-11T20:22:24.477Z,13.60
2019-05-11T20:27:20.096Z,13.60
2019-05-11T20:32:15.766Z,13.60
2019-05-11T20:37:11.415Z,13.70
2019-05-11T20:42:08.733Z,13.80
2019-05-11T20:47:04.530Z,13.70
2019-05-11T20:52:00.228Z,13.60
2019-05-11T20:56:58.433Z,13.40
2019-05-11T21:01:54.393Z,13.30
2019-05-11T21:06:50.097Z,13.10
2019-05-11T21:11:47.833Z,13.00
2019-05-11T21:16:43.168Z,12.90
2019-05-11T21:21:49.610Z,12.80
2019-05-11T21:26:38.360Z,12.80
2019-05-11T21:31:33.300Z,12.90
2019-05-11T21:36:28.909Z,12.90
2019-05-11T21:41:24.553Z,12.90
2019-05-11T21:46:20.192Z,13.00
2019-05-11T21:51:17.962Z,13.00
2019-05-11T21:56:13.042Z,12.90
2019-05-11T22:01:09.601Z,12.90
2019-05-11T22:06:05.758Z,13.00
2019-05-11T22:11:01.457Z,12.90
2019-05-11T22:15:58.054Z,13.00
2019-05-11T22:20:53.895Z,12.90
2019-05-11T22:25:50.607Z,12.90
2019-05-11T22:30:48.301Z,12.90
2019-05-11T22:35:43.717Z,12.80
2019-05-11T22:40:39.280Z,12.80
2019-05-11T22:45:34.970Z,12.80
2019-05-11T22:50:30.632Z,12.70
2019-05-11T22:55:27.703Z,12.60
2019-05-11T23:00:40.151Z,12.60
2019-05-11T23:05:35.785Z,12.60
2019-05-11T23:10:31.449Z,12.60
2019-05-11T23:15:27.091Z,12.70
2019-05-11T23:20:22.850Z,12.70
2019-05-11T23:25:18.765Z,12.70
2019-05-11T23:30:14.877Z,12.80
2019-05-11T23:35:10.766Z,12.70
2019-05-11T23:40:08.927Z,12.70
2019-05-11T23:45:04.301Z,12.70
2019-05-11T23:50:00.001Z,12.60
2019-05-11T23:54:55.599Z,12.50
2019-05-11T23:59:51.301Z,12.40
